PWSweather.com
Personal Weather Stations
Station Observations
ISARDEGN48
BittiIT 08021

BittiIT 08021

Lat: 40.4805, Lon: 9.3887

Elevation: 1804

Station Type: La Crosse WS2355

http://meteobitti.altervista.org

High Low Average
Temperature 82.8°F28.2°C 59.5°F15.3°C 69.0°F20.6°C
Dew Point 61.9°F16.6°C 49.9°F9.9°C 56.3°F13.5°C
Winds 9.2 mph 14.8 kmh Calm Calm 2.0 mph SE3.2 kmh SE
Wind Gusts 17.7 mph28.5 kmh 0.7 mph1.1 kmh 6.0 mph9.7 kmh
Humidity 89% 36% 67%
Pressure 29.87 in1011.5 mb 29.69 in1005.4 mb -
Precipitation 0.00 in0.0 mm - -
Hour Temp Dew Point Humidity Winds Wind Gusts Pressure Precip Precip Rate Daily Precip Total
12:00 AM 62.6°F17.0°C 57.7°F14.3°C 84% Calm Calm 1.8 mph2.9 kmh 29.87 in1011.5 mb 0.00 in0.0 mm 0.00 in0.0 mm 0.00 in0.0 mm
12:05 AM 62.4°F16.9°C 57.8°F14.3°C 85% Calm Calm 1.8 mph2.9 kmh 29.87 in1011.5 mb 0.00 in0.0 mm 0.00 in0.0 mm 0.00 in0.0 mm
12:10 AM 62.2°F16.8°C 57.7°F14.3°C 85% Calm Calm 1.3 mph2.1 kmh 29.87 in1011.5 mb 0.00 in0.0 mm 0.00 in0.0 mm 0.00 in0.0 mm
12:15 AM 62.2°F16.8°C 57.7°F14.3°C 85% Calm Calm 1.3 mph2.1 kmh 29.87 in1011.5 mb 0.00 in0.0 mm 0.00 in0.0 mm 0.00 in0.0 mm
12:20 AM 62.1°F16.7°C 57.5°F14.2°C 85% Calm Calm 2.2 mph3.5 kmh 29.87 in1011.5 mb 0.00 in0.0 mm 0.00 in0.0 mm 0.00 in0.0 mm
12:25 AM 61.9°F16.6°C 57.3°F14.1°C 85% 2.0 mph SW3.2 kmh SW 2.5 mph4.0 kmh 29.87 in1011.5 mb 0.00 in0.0 mm 0.00 in0.0 mm 0.00 in0.0 mm
12:30 AM 61.7°F16.5°C 57.1°F13.9°C 85% Calm Calm 2.5 mph4.0 kmh 29.87 in1011.5 mb 0.00 in0.0 mm 0.00 in0.0 mm 0.00 in0.0 mm
12:35 AM 61.7°F16.5°C 57.1°F13.9°C 85% Calm Calm 2.5 mph4.0 kmh 29.87 in1011.5 mb 0.00 in0.0 mm 0.00 in0.0 mm 0.00 in0.0 mm
12:40 AM 61.5°F16.4°C 57.0°F13.9°C 85% Calm Calm 1.6 mph2.6 kmh 29.87 in1011.5 mb 0.00 in0.0 mm 0.00 in0.0 mm 0.00 in0.0 mm
12:45 AM 61.5°F16.4°C 57.0°F13.9°C 85% Calm Calm 1.3 mph2.1 kmh 29.87 in1011.5 mb 0.00 in0.0 mm 0.00 in0.0 mm 0.00 in0.0 mm
12:50 AM 61.5°F16.4°C 57.0°F13.9°C 85% Calm Calm 1.1 mph1.8 kmh 29.87 in1011.5 mb 0.00 in0.0 mm 0.00 in0.0 mm 0.00 in0.0 mm
12:55 AM 61.3°F16.3°C 56.8°F13.8°C 85% Calm Calm 1.3 mph2.1 kmh 29.87 in1011.5 mb 0.00 in0.0 mm 0.00 in0.0 mm 0.00 in0.0 mm
01:00 AM 61.3°F16.3°C 57.1°F13.9°C 86% Calm Calm 2.0 mph3.2 kmh 29.87 in1011.5 mb 0.00 in0.0 mm 0.00 in0.0 mm 0.00 in0.0 mm
01:05 AM 61.3°F16.3°C 57.1°F13.9°C 86% 1.3 mph SSW2.1 kmh SSW 2.5 mph4.0 kmh 29.87 in1011.5 mb 0.00 in0.0 mm 0.00 in0.0 mm 0.00 in0.0 mm
01:10 AM 61.9°F16.6°C 58.0°F14.4°C 87% 4.3 mph S6.9 kmh S 5.4 mph8.7 kmh 29.87 in1011.5 mb 0.00 in0.0 mm 0.00 in0.0 mm 0.00 in0.0 mm
01:15 AM 62.4°F16.9°C 58.5°F14.7°C 87% Calm Calm 6.7 mph10.8 kmh 29.87 in1011.5 mb 0.00 in0.0 mm 0.00 in0.0 mm 0.00 in0.0 mm
01:20 AM 62.4°F16.9°C 58.5°F14.7°C 87% Calm Calm 6.7 mph10.8 kmh 29.87 in1011.5 mb 0.00 in0.0 mm 0.00 in0.0 mm 0.00 in0.0 mm
01:25 AM 62.2°F16.8°C 58.0°F14.4°C 86% 0.9 mph SW1.4 kmh SW 1.8 mph2.9 kmh 29.87 in1011.5 mb 0.00 in0.0 mm 0.00 in0.0 mm 0.00 in0.0 mm
01:30 AM 61.9°F16.6°C 57.7°F14.3°C 86% Calm Calm 2.5 mph4.0 kmh 29.86 in1011.2 mb 0.00 in0.0 mm 0.00 in0.0 mm 0.00 in0.0 mm
01:35 AM 61.7°F16.5°C 57.5°F14.2°C 86% 2.0 mph E3.2 kmh E 2.5 mph4.0 kmh 29.86 in1011.2 mb 0.00 in0.0 mm 0.00 in0.0 mm 0.00 in0.0 mm
01:40 AM 61.5°F16.4°C 57.3°F14.1°C 86% Calm Calm 2.9 mph4.7 kmh 29.86 in1011.2 mb 0.00 in0.0 mm 0.00 in0.0 mm 0.00 in0.0 mm
01:45 AM 61.3°F16.3°C 57.1°F13.9°C 86% Calm Calm 2.9 mph4.7 kmh 29.86 in1011.2 mb 0.00 in0.0 mm 0.00 in0.0 mm 0.00 in0.0 mm
01:50 AM 61.2°F16.2°C 57.3°F14.1°C 87% 2.0 mph WSW3.2 kmh WSW 2.2 mph3.5 kmh 29.86 in1011.2 mb 0.00 in0.0 mm 0.00 in0.0 mm 0.00 in0.0 mm
01:55 AM 61.2°F16.2°C 57.3°F14.1°C 87% 2.2 mph WSW3.5 kmh WSW 2.7 mph4.3 kmh 29.86 in1011.2 mb 0.00 in0.0 mm 0.00 in0.0 mm 0.00 in0.0 mm
02:00 AM 61.3°F16.3°C 57.8°F14.3°C 88% 5.1 mph SW8.2 kmh SW 10.1 mph16.3 kmh 29.86 in1011.2 mb 0.00 in0.0 mm 0.00 in0.0 mm 0.00 in0.0 mm
02:05 AM 62.4°F16.9°C 58.5°F14.7°C 87% 7.2 mph SSW11.6 kmh SSW 17.7 mph28.5 kmh 29.86 in1011.2 mb 0.00 in0.0 mm 0.00 in0.0 mm 0.00 in0.0 mm
02:10 AM 62.8°F17.1°C 58.9°F14.9°C 86% 8.3 mph S13.4 kmh S 17.7 mph28.5 kmh 29.86 in1011.2 mb 0.00 in0.0 mm 0.00 in0.0 mm 0.00 in0.0 mm
02:15 AM 63.0°F17.2°C 58.7°F14.8°C 86% 8.3 mph SSW13.4 kmh SSW 15.2 mph24.5 kmh 29.86 in1011.2 mb 0.00 in0.0 mm 0.00 in0.0 mm 0.00 in0.0 mm
02:20 AM 63.1°F17.3°C 58.9°F14.9°C 86% 6.0 mph SSW9.7 kmh SSW 10.5 mph16.9 kmh 29.86 in1011.2 mb 0.00 in0.0 mm 0.00 in0.0 mm 0.00 in0.0 mm
02:25 AM 63.1°F17.3°C 58.9°F14.9°C 86% 4.3 mph SSW6.9 kmh SSW 10.3 mph16.6 kmh 29.86 in1011.2 mb 0.00 in0.0 mm 0.00 in0.0 mm 0.00 in0.0 mm
02:30 AM 63.0°F17.2°C 58.7°F14.8°C 86% Calm Calm 10.3 mph16.6 kmh 29.86 in1011.2 mb 0.00 in0.0 mm 0.00 in0.0 mm 0.00 in0.0 mm
02:35 AM 63.0°F17.2°C 58.7°F14.8°C 86% 2.7 mph SSW4.3 kmh SSW 7.4 mph11.9 kmh 29.86 in1011.2 mb 0.00 in0.0 mm 0.00 in0.0 mm 0.00 in0.0 mm
02:40 AM 63.0°F17.2°C 58.7°F14.8°C 86% Calm Calm 5.8 mph9.3 kmh 29.86 in1011.2 mb 0.00 in0.0 mm 0.00 in0.0 mm 0.00 in0.0 mm
02:45 AM 62.8°F17.1°C 58.5°F14.7°C 86% Calm Calm 3.6 mph5.8 kmh 29.86 in1011.2 mb 0.00 in0.0 mm 0.00 in0.0 mm 0.00 in0.0 mm
02:50 AM 62.4°F16.9°C 57.8°F14.3°C 85% 1.1 mph SW1.8 kmh SW 2.2 mph3.5 kmh 29.85 in1010.8 mb 0.00 in0.0 mm 0.00 in0.0 mm 0.00 in0.0 mm
02:55 AM 62.4°F16.9°C 58.2°F14.6°C 86% 2.0 mph SW3.2 kmh SW 2.7 mph4.3 kmh 29.85 in1010.8 mb 0.00 in0.0 mm 0.00 in0.0 mm 0.00 in0.0 mm
03:00 AM 62.2°F16.8°C 58.0°F14.4°C 86% Calm Calm 2.7 mph4.3 kmh 29.85 in1010.8 mb 0.00 in0.0 mm 0.00 in0.0 mm 0.00 in0.0 mm
03:05 AM 62.1°F16.7°C 57.8°F14.3°C 86% 1.3 mph SW2.1 kmh SW 1.3 mph2.1 kmh 29.85 in1010.8 mb 0.00 in0.0 mm 0.00 in0.0 mm 0.00 in0.0 mm
03:10 AM 61.9°F16.6°C 57.7°F14.3°C 86% Calm Calm 2.2 mph3.5 kmh 29.85 in1010.8 mb 0.00 in0.0 mm 0.00 in0.0 mm 0.00 in0.0 mm
03:15 AM 61.9°F16.6°C 57.7°F14.3°C 86% 1.1 mph SW1.8 kmh SW 2.2 mph3.5 kmh 29.85 in1010.8 mb 0.00 in0.0 mm 0.00 in0.0 mm 0.00 in0.0 mm
03:20 AM 61.7°F16.5°C 57.5°F14.2°C 86% 2.0 mph SW3.2 kmh SW 2.0 mph3.2 kmh 29.85 in1010.8 mb 0.00 in0.0 mm 0.00 in0.0 mm 0.00 in0.0 mm
03:25 AM 61.7°F16.5°C 57.8°F14.3°C 87% Calm Calm 2.2 mph3.5 kmh 29.85 in1010.8 mb 0.00 in0.0 mm 0.00 in0.0 mm 0.00 in0.0 mm
03:30 AM 61.7°F16.5°C 57.8°F14.3°C 87% Calm Calm 2.2 mph3.5 kmh 29.85 in1010.8 mb 0.00 in0.0 mm 0.00 in0.0 mm 0.00 in0.0 mm
03:35 AM 61.7°F16.5°C 57.8°F14.3°C 87% 0.9 mph SW1.4 kmh SW 2.2 mph3.5 kmh 29.85 in1010.8 mb 0.00 in0.0 mm 0.00 in0.0 mm 0.00 in0.0 mm
03:40 AM 61.7°F16.5°C 57.8°F14.3°C 87% 2.5 mph SW4.0 kmh SW 2.9 mph4.7 kmh 29.85 in1010.8 mb 0.00 in0.0 mm 0.00 in0.0 mm 0.00 in0.0 mm
03:45 AM 61.7°F16.5°C 57.8°F14.3°C 87% 4.7 mph SW7.6 kmh SW 4.7 mph7.6 kmh 29.84 in1010.5 mb 0.00 in0.0 mm 0.00 in0.0 mm 0.00 in0.0 mm
03:50 AM 61.7°F16.5°C 57.8°F14.3°C 87% Calm Calm 4.7 mph7.6 kmh 29.85 in1010.8 mb 0.00 in0.0 mm 0.00 in0.0 mm 0.00 in0.0 mm
03:55 AM 61.9°F16.6°C 58.0°F14.4°C 87% 2.0 mph WSW3.2 kmh WSW 5.1 mph8.2 kmh 29.85 in1010.8 mb 0.00 in0.0 mm 0.00 in0.0 mm 0.00 in0.0 mm
04:00 AM 61.9°F16.6°C 58.0°F14.4°C 87% 3.6 mph WSW5.8 kmh WSW 5.1 mph8.2 kmh 29.84 in1010.5 mb 0.00 in0.0 mm 0.00 in0.0 mm 0.00 in0.0 mm
04:05 AM 61.9°F16.6°C 58.0°F14.4°C 87% Calm Calm 3.6 mph5.8 kmh 29.84 in1010.5 mb 0.00 in0.0 mm 0.00 in0.0 mm 0.00 in0.0 mm
04:10 AM 61.7°F16.5°C 57.8°F14.3°C 87% 1.1 mph SW1.8 kmh SW 3.8 mph6.1 kmh 29.84 in1010.5 mb 0.00 in0.0 mm 0.00 in0.0 mm 0.00 in0.0 mm
04:15 AM 61.7°F16.5°C 57.8°F14.3°C 87% Calm Calm 3.8 mph6.1 kmh 29.84 in1010.5 mb 0.00 in0.0 mm 0.00 in0.0 mm 0.00 in0.0 mm
04:20 AM 61.7°F16.5°C 57.8°F14.3°C 87% 4.0 mph NNE6.4 kmh NNE 5.1 mph8.2 kmh 29.84 in1010.5 mb 0.00 in0.0 mm 0.00 in0.0 mm 0.00 in0.0 mm
04:25 AM 61.5°F16.4°C 57.6°F14.2°C 87% 2.2 mph NE3.5 kmh NE 5.1 mph8.2 kmh 29.84 in1010.5 mb 0.00 in0.0 mm 0.00 in0.0 mm 0.00 in0.0 mm
04:30 AM 61.5°F16.4°C 57.6°F14.2°C 87% Calm Calm 4.5 mph7.2 kmh 29.84 in1010.5 mb 0.00 in0.0 mm 0.00 in0.0 mm 0.00 in0.0 mm
04:35 AM 61.5°F16.4°C 57.6°F14.2°C 87% 2.9 mph NNE4.7 kmh NNE 2.9 mph4.7 kmh 29.84 in1010.5 mb 0.00 in0.0 mm 0.00 in0.0 mm 0.00 in0.0 mm
04:40 AM 61.2°F16.2°C 57.3°F14.1°C 87% 1.3 mph NE2.1 kmh NE 3.1 mph5.0 kmh 29.83 in1010.2 mb 0.00 in0.0 mm 0.00 in0.0 mm 0.00 in0.0 mm
04:45 AM 61.2°F16.2°C 57.3°F14.1°C 87% 3.6 mph NE5.8 kmh NE 4.5 mph7.2 kmh 29.83 in1010.2 mb 0.00 in0.0 mm 0.00 in0.0 mm 0.00 in0.0 mm
04:50 AM 61.2°F16.2°C 57.6°F14.2°C 88% 2.0 mph NE3.2 kmh NE 5.1 mph8.2 kmh 29.83 in1010.2 mb 0.00 in0.0 mm 0.00 in0.0 mm 0.00 in0.0 mm
04:55 AM 61.2°F16.2°C 57.6°F14.2°C 88% Calm Calm 5.1 mph8.2 kmh 29.83 in1010.2 mb 0.00 in0.0 mm 0.00 in0.0 mm 0.00 in0.0 mm
05:00 AM 61.0°F16.1°C 57.1°F13.9°C 87% Calm Calm 2.7 mph4.3 kmh 29.83 in1010.2 mb 0.00 in0.0 mm 0.00 in0.0 mm 0.00 in0.0 mm
05:05 AM 61.0°F16.1°C 57.1°F13.9°C 87% Calm Calm 2.5 mph4.0 kmh 29.83 in1010.2 mb 0.00 in0.0 mm 0.00 in0.0 mm 0.00 in0.0 mm
05:10 AM 60.8°F16.0°C 56.9°F13.8°C 87% Calm Calm 0.7 mph1.1 kmh 29.83 in1010.2 mb 0.00 in0.0 mm 0.00 in0.0 mm 0.00 in0.0 mm
05:15 AM 60.6°F15.9°C 56.8°F13.8°C 87% Calm Calm 1.6 mph2.6 kmh 29.83 in1010.2 mb 0.00 in0.0 mm 0.00 in0.0 mm 0.00 in0.0 mm
05:20 AM 60.6°F15.9°C 56.8°F13.8°C 87% 2.5 mph SW4.0 kmh SW 3.6 mph5.8 kmh 29.83 in1010.2 mb 0.00 in0.0 mm 0.00 in0.0 mm 0.00 in0.0 mm
05:25 AM 60.6°F15.9°C 56.8°F13.8°C 87% Calm Calm 3.6 mph5.8 kmh 29.83 in1010.2 mb 0.00 in0.0 mm 0.00 in0.0 mm 0.00 in0.0 mm
05:30 AM 60.6°F15.9°C 57.1°F13.9°C 88% Calm Calm 2.5 mph4.0 kmh 29.83 in1010.2 mb 0.00 in0.0 mm 0.00 in0.0 mm 0.00 in0.0 mm
05:35 AM 61.0°F16.1°C 57.4°F14.1°C 88% 2.0 mph SE3.2 kmh SE 3.8 mph6.1 kmh 29.83 in1010.2 mb 0.00 in0.0 mm 0.00 in0.0 mm 0.00 in0.0 mm
05:40 AM 61.0°F16.1°C 57.4°F14.1°C 88% Calm Calm 3.8 mph6.1 kmh 29.83 in1010.2 mb 0.00 in0.0 mm 0.00 in0.0 mm 0.00 in0.0 mm
05:45 AM 61.0°F16.1°C 57.4°F14.1°C 88% 2.0 mph S3.2 kmh S 3.6 mph5.8 kmh 29.83 in1010.2 mb 0.00 in0.0 mm 0.00 in0.0 mm 0.00 in0.0 mm
05:50 AM 61.0°F16.1°C 57.4°F14.1°C 88% Calm Calm 3.6 mph5.8 kmh 29.83 in1010.2 mb 0.00 in0.0 mm 0.00 in0.0 mm 0.00 in0.0 mm
05:55 AM 61.0°F16.1°C 57.4°F14.1°C 88% 0.9 mph S1.4 kmh S 3.6 mph5.8 kmh 29.83 in1010.2 mb 0.00 in0.0 mm 0.00 in0.0 mm 0.00 in0.0 mm
06:00 AM 60.6°F15.9°C 57.1°F13.9°C 88% Calm Calm 2.0 mph3.2 kmh 29.83 in1010.2 mb 0.00 in0.0 mm 0.00 in0.0 mm 0.00 in0.0 mm
06:05 AM 60.4°F15.8°C 56.6°F13.7°C 87% 1.8 mph WSW2.9 kmh WSW 2.0 mph3.2 kmh 29.83 in1010.2 mb 0.00 in0.0 mm 0.00 in0.0 mm 0.00 in0.0 mm
06:10 AM 60.4°F15.8°C 56.6°F13.7°C 87% Calm Calm 2.2 mph3.5 kmh 29.83 in1010.2 mb 0.00 in0.0 mm 0.00 in0.0 mm 0.00 in0.0 mm
06:15 AM 60.1°F15.6°C 56.2°F13.4°C 87% 1.3 mph SW2.1 kmh SW 2.2 mph3.5 kmh 29.83 in1010.2 mb 0.00 in0.0 mm 0.00 in0.0 mm 0.00 in0.0 mm
06:20 AM 60.1°F15.6°C 56.2°F13.4°C 87% Calm Calm 1.3 mph2.1 kmh 29.83 in1010.2 mb 0.00 in0.0 mm 0.00 in0.0 mm 0.00 in0.0 mm
06:25 AM 60.1°F15.6°C 56.6°F13.7°C 88% 0.9 mph SW1.4 kmh SW 1.1 mph1.8 kmh 29.83 in1010.2 mb 0.00 in0.0 mm 0.00 in0.0 mm 0.00 in0.0 mm
06:30 AM 59.9°F15.5°C 56.4°F13.6°C 88% 2.2 mph SW3.5 kmh SW 2.2 mph3.5 kmh 29.83 in1010.2 mb 0.00 in0.0 mm 0.00 in0.0 mm 0.00 in0.0 mm
06:35 AM 59.7°F15.4°C 56.2°F13.4°C 88% Calm Calm 2.2 mph3.5 kmh 29.83 in1010.2 mb 0.00 in0.0 mm 0.00 in0.0 mm 0.00 in0.0 mm
06:40 AM 59.7°F15.4°C 56.2°F13.4°C 88% Calm Calm 1.8 mph2.9 kmh 29.83 in1010.2 mb 0.00 in0.0 mm 0.00 in0.0 mm 0.00 in0.0 mm
06:45 AM 59.5°F15.3°C 56.0°F13.3°C 88% Calm Calm 1.3 mph2.1 kmh 29.83 in1010.2 mb 0.00 in0.0 mm 0.00 in0.0 mm 0.00 in0.0 mm
06:50 AM 59.5°F15.3°C 56.0°F13.3°C 88% 0.9 mph W1.4 kmh W 1.6 mph2.6 kmh 29.83 in1010.2 mb 0.00 in0.0 mm 0.00 in0.0 mm 0.00 in0.0 mm
06:55 AM 59.9°F15.5°C 56.7°F13.7°C 89% 5.1 mph SW8.2 kmh SW 7.2 mph11.6 kmh 29.83 in1010.2 mb 0.00 in0.0 mm 0.00 in0.0 mm 0.00 in0.0 mm
07:00 AM 60.3°F15.7°C 57.1°F13.9°C 89% 8.9 mph SW14.3 kmh SW 8.9 mph14.3 kmh 29.83 in1010.2 mb 0.00 in0.0 mm 0.00 in0.0 mm 0.00 in0.0 mm
07:05 AM 60.4°F15.8°C 57.2°F14.0°C 89% 4.7 mph SW7.6 kmh SW 10.3 mph16.6 kmh 29.83 in1010.2 mb 0.00 in0.0 mm 0.00 in0.0 mm 0.00 in0.0 mm
07:10 AM 60.6°F15.9°C 57.4°F14.1°C 89% 4.7 mph SW7.6 kmh SW 11.9 mph19.2 kmh 29.83 in1010.2 mb 0.00 in0.0 mm 0.00 in0.0 mm 0.00 in0.0 mm
07:15 AM 60.6°F15.9°C 57.4°F14.1°C 89% 6.9 mph SW11.1 kmh SW 12.3 mph19.8 kmh 29.83 in1010.2 mb 0.00 in0.0 mm 0.00 in0.0 mm 0.00 in0.0 mm
07:20 AM 60.8°F16.0°C 57.3°F14.1°C 88% 7.8 mph SW12.6 kmh SW 12.3 mph19.8 kmh 29.83 in1010.2 mb 0.00 in0.0 mm 0.00 in0.0 mm 0.00 in0.0 mm
07:25 AM 61.0°F16.1°C 57.4°F14.1°C 88% 2.9 mph SSW4.7 kmh SSW 11.4 mph18.3 kmh 29.84 in1010.5 mb 0.00 in0.0 mm 0.00 in0.0 mm 0.00 in0.0 mm
07:30 AM 61.0°F16.1°C 57.4°F14.1°C 88% 1.3 mph SSW2.1 kmh SSW 9.6 mph15.4 kmh 29.83 in1010.2 mb 0.00 in0.0 mm 0.00 in0.0 mm 0.00 in0.0 mm
07:35 AM 61.2°F16.2°C 57.6°F14.2°C 88% 6.0 mph SW9.7 kmh SW 8.7 mph14.0 kmh 29.83 in1010.2 mb 0.00 in0.0 mm 0.00 in0.0 mm 0.00 in0.0 mm
07:40 AM 61.2°F16.2°C 57.3°F14.1°C 87% 3.4 mph SW5.5 kmh SW 8.7 mph14.0 kmh 29.83 in1010.2 mb 0.00 in0.0 mm 0.00 in0.0 mm 0.00 in0.0 mm
07:45 AM 61.3°F16.3°C 57.5°F14.2°C 87% 6.5 mph SW10.5 kmh SW 10.5 mph16.9 kmh 29.83 in1010.2 mb 0.00 in0.0 mm 0.00 in0.0 mm 0.00 in0.0 mm
07:50 AM 61.7°F16.5°C 57.5°F14.2°C 86% 3.6 mph SW5.8 kmh SW 11.2 mph18.0 kmh 29.83 in1010.2 mb 0.00 in0.0 mm 0.00 in0.0 mm 0.00 in0.0 mm
07:55 AM 62.2°F16.8°C 57.3°F14.1°C 84% 3.6 mph SSW5.8 kmh SSW 11.2 mph18.0 kmh 29.83 in1010.2 mb 0.00 in0.0 mm 0.00 in0.0 mm 0.00 in0.0 mm
08:00 AM 63.0°F17.2°C 57.7°F14.3°C 83% 1.8 mph SW2.9 kmh SW 7.4 mph11.9 kmh 29.83 in1010.2 mb 0.00 in0.0 mm 0.00 in0.0 mm 0.00 in0.0 mm
08:05 AM 63.7°F17.6°C 58.1°F14.5°C 82% Calm Calm 7.2 mph11.6 kmh 29.83 in1010.2 mb 0.00 in0.0 mm 0.00 in0.0 mm 0.00 in0.0 mm
08:10 AM 64.2°F17.9°C 58.3°F14.6°C 81% 3.6 mph ESE5.8 kmh ESE 3.8 mph6.1 kmh 29.83 in1010.2 mb 0.00 in0.0 mm 0.00 in0.0 mm 0.00 in0.0 mm
08:15 AM 64.6°F18.1°C 58.3°F14.6°C 80% 2.0 mph E3.2 kmh E 3.8 mph6.1 kmh 29.83 in1010.2 mb 0.00 in0.0 mm 0.00 in0.0 mm 0.00 in0.0 mm
08:20 AM 65.1°F18.4°C 58.4°F14.7°C 79% Calm Calm 3.4 mph5.5 kmh 29.84 in1010.5 mb 0.00 in0.0 mm 0.00 in0.0 mm 0.00 in0.0 mm
08:25 AM 65.8°F18.8°C 58.4°F14.7°C 77% 1.3 mph SE2.1 kmh SE 2.9 mph4.7 kmh 29.83 in1010.2 mb 0.00 in0.0 mm 0.00 in0.0 mm 0.00 in0.0 mm
08:30 AM 66.0°F18.9°C 58.6°F14.8°C 77% Calm Calm 1.6 mph2.6 kmh 29.83 in1010.2 mb 0.00 in0.0 mm 0.00 in0.0 mm 0.00 in0.0 mm
08:35 AM 66.6°F19.2°C 58.7°F14.8°C 76% Calm Calm 1.6 mph2.6 kmh 29.83 in1010.2 mb 0.00 in0.0 mm 0.00 in0.0 mm 0.00 in0.0 mm
08:40 AM 66.9°F19.4°C 58.7°F14.8°C 75% 1.3 mph NE2.1 kmh NE 1.3 mph2.1 kmh 29.83 in1010.2 mb 0.00 in0.0 mm 0.00 in0.0 mm 0.00 in0.0 mm
08:45 AM 66.9°F19.4°C 58.7°F14.8°C 75% 2.0 mph NE3.2 kmh NE 2.2 mph3.5 kmh 29.84 in1010.5 mb 0.00 in0.0 mm 0.00 in0.0 mm 0.00 in0.0 mm
08:50 AM 67.3°F19.6°C 59.1°F15.1°C 75% 1.6 mph NE2.6 kmh NE 2.2 mph3.5 kmh 29.84 in1010.5 mb 0.00 in0.0 mm 0.00 in0.0 mm 0.00 in0.0 mm
08:55 AM 67.8°F19.9°C 56.9°F13.8°C 68% 3.6 mph SSW5.8 kmh SSW 6.7 mph10.8 kmh 29.84 in1010.5 mb 0.00 in0.0 mm 0.00 in0.0 mm 0.00 in0.0 mm
09:00 AM 68.2°F20.1°C 55.5°F13.1°C 64% 3.1 mph S5.0 kmh S 6.9 mph11.1 kmh 29.84 in1010.5 mb 0.00 in0.0 mm 0.00 in0.0 mm 0.00 in0.0 mm
09:05 AM 69.3°F20.7°C 56.5°F13.6°C 64% 3.1 mph S5.0 kmh S 6.9 mph11.1 kmh 29.84 in1010.5 mb 0.00 in0.0 mm 0.00 in0.0 mm 0.00 in0.0 mm
09:10 AM 70.0°F21.1°C 56.8°F13.8°C 63% 0.9 mph SSW1.4 kmh SSW 3.8 mph6.1 kmh 29.84 in1010.5 mb 0.00 in0.0 mm 0.00 in0.0 mm 0.00 in0.0 mm
09:15 AM 70.9°F21.6°C 57.2°F14.0°C 62% Calm Calm 4.3 mph6.9 kmh 29.84 in1010.5 mb 0.00 in0.0 mm 0.00 in0.0 mm 0.00 in0.0 mm
09:20 AM 71.4°F21.9°C 57.7°F14.3°C 62% 1.6 mph E2.6 kmh E 4.3 mph6.9 kmh 29.84 in1010.5 mb 0.00 in0.0 mm 0.00 in0.0 mm 0.00 in0.0 mm
09:25 AM 72.3°F22.4°C 58.1°F14.5°C 61% Calm Calm 2.5 mph4.0 kmh 29.83 in1010.2 mb 0.00 in0.0 mm 0.00 in0.0 mm 0.00 in0.0 mm
09:30 AM 72.7°F22.6°C 56.5°F13.6°C 57% 1.6 mph WSW2.6 kmh WSW 8.3 mph13.4 kmh 29.83 in1010.2 mb 0.00 in0.0 mm 0.00 in0.0 mm 0.00 in0.0 mm
09:35 AM 72.7°F22.6°C 57.0°F13.9°C 58% 1.6 mph W2.6 kmh W 8.3 mph13.4 kmh 29.83 in1010.2 mb 0.00 in0.0 mm 0.00 in0.0 mm 0.00 in0.0 mm
09:40 AM 73.0°F22.8°C 56.3°F13.5°C 56% 1.6 mph SW2.6 kmh SW 4.7 mph7.6 kmh 29.83 in1010.2 mb 0.00 in0.0 mm 0.00 in0.0 mm 0.00 in0.0 mm
09:45 AM 73.8°F23.2°C 57.0°F13.9°C 56% 2.5 mph SSW4.0 kmh SSW 4.7 mph7.6 kmh 29.83 in1010.2 mb 0.00 in0.0 mm 0.00 in0.0 mm 0.00 in0.0 mm
09:50 AM 74.3°F23.5°C 56.5°F13.6°C 54% 2.7 mph S4.3 kmh S 4.7 mph7.6 kmh 29.84 in1010.5 mb 0.00 in0.0 mm 0.00 in0.0 mm 0.00 in0.0 mm
09:55 AM 74.5°F23.6°C 56.2°F13.4°C 53% 8.3 mph SSW13.4 kmh SSW 9.4 mph15.1 kmh 29.84 in1010.5 mb 0.00 in0.0 mm 0.00 in0.0 mm 0.00 in0.0 mm
10:00 AM 74.5°F23.6°C 55.2°F12.9°C 51% 3.4 mph SSW5.5 kmh SSW 9.4 mph15.1 kmh 29.84 in1010.5 mb 0.00 in0.0 mm 0.00 in0.0 mm 0.00 in0.0 mm
10:05 AM 74.8°F23.8°C 53.8°F12.1°C 48% 3.6 mph SSW5.8 kmh SSW 8.1 mph13.0 kmh 29.83 in1010.2 mb 0.00 in0.0 mm 0.00 in0.0 mm 0.00 in0.0 mm
10:10 AM 75.0°F23.9°C 53.4°F11.9°C 47% 3.4 mph SSW5.5 kmh SSW 10.5 mph16.9 kmh 29.84 in1010.5 mb 0.00 in0.0 mm 0.00 in0.0 mm 0.00 in0.0 mm
10:15 AM 75.0°F23.9°C 53.4°F11.9°C 47% 2.9 mph SSW4.7 kmh SSW 10.5 mph16.9 kmh 29.83 in1010.2 mb 0.00 in0.0 mm 0.00 in0.0 mm 0.00 in0.0 mm
10:20 AM 75.0°F23.9°C 52.8°F11.6°C 46% 3.1 mph S5.0 kmh S 8.9 mph14.3 kmh 29.83 in1010.2 mb 0.00 in0.0 mm 0.00 in0.0 mm 0.00 in0.0 mm
10:25 AM 75.4°F24.1°C 53.1°F11.7°C 46% 3.6 mph SSW5.8 kmh SSW 9.6 mph15.4 kmh 29.83 in1010.2 mb 0.00 in0.0 mm 0.00 in0.0 mm 0.00 in0.0 mm
10:30 AM 75.7°F24.3°C 52.8°F11.6°C 45% 6.5 mph SSW10.5 kmh SSW 9.6 mph15.4 kmh 29.83 in1010.2 mb 0.00 in0.0 mm 0.00 in0.0 mm 0.00 in0.0 mm
10:35 AM 76.1°F24.5°C 53.2°F11.8°C 45% 2.5 mph SSW4.0 kmh SSW 8.9 mph14.3 kmh 29.83 in1010.2 mb 0.00 in0.0 mm 0.00 in0.0 mm 0.00 in0.0 mm
10:40 AM 76.6°F24.8°C 53.0°F11.7°C 44% 9.2 mph S14.8 kmh S 9.4 mph15.1 kmh 29.83 in1010.2 mb 0.00 in0.0 mm 0.00 in0.0 mm 0.00 in0.0 mm
10:45 AM 76.5°F24.7°C 52.9°F11.6°C 44% 4.5 mph S7.2 kmh S 10.3 mph16.6 kmh 29.83 in1010.2 mb 0.00 in0.0 mm 0.00 in0.0 mm 0.00 in0.0 mm
10:50 AM 76.8°F24.9°C 53.8°F12.1°C 45% 3.8 mph S6.1 kmh S 10.3 mph16.6 kmh 29.83 in1010.2 mb 0.00 in0.0 mm 0.00 in0.0 mm 0.00 in0.0 mm
10:55 AM 77.2°F25.1°C 52.9°F11.6°C 43% 2.2 mph S3.5 kmh S 6.9 mph11.1 kmh 29.83 in1010.2 mb 0.00 in0.0 mm 0.00 in0.0 mm 0.00 in0.0 mm
11:00 AM 77.5°F25.3°C 53.2°F11.8°C 43% 2.5 mph SW4.0 kmh SW 10.5 mph16.9 kmh 29.83 in1010.2 mb 0.00 in0.0 mm 0.00 in0.0 mm 0.00 in0.0 mm
11:05 AM 77.5°F25.3°C 54.4°F12.4°C 45% Calm Calm 10.5 mph16.9 kmh 29.83 in1010.2 mb 0.00 in0.0 mm 0.00 in0.0 mm 0.00 in0.0 mm
11:10 AM 78.1°F25.6°C 54.3°F12.4°C 44% Calm Calm 4.7 mph7.6 kmh 29.83 in1010.2 mb 0.00 in0.0 mm 0.00 in0.0 mm 0.00 in0.0 mm
11:15 AM 78.6°F25.9°C 54.8°F12.7°C 44% 1.3 mph S2.1 kmh S 4.7 mph7.6 kmh 29.82 in1009.8 mb 0.00 in0.0 mm 0.00 in0.0 mm 0.00 in0.0 mm
11:20 AM 78.4°F25.8°C 54.0°F12.2°C 43% 3.6 mph S5.8 kmh S 7.4 mph11.9 kmh 29.82 in1009.8 mb 0.00 in0.0 mm 0.00 in0.0 mm 0.00 in0.0 mm
11:25 AM 78.1°F25.6°C 53.7°F12.1°C 43% 4.7 mph SSW7.6 kmh SSW 8.1 mph13.0 kmh 29.82 in1009.8 mb 0.00 in0.0 mm 0.00 in0.0 mm 0.00 in0.0 mm
11:30 AM 77.9°F25.5°C 54.2°F12.3°C 43% 3.8 mph SSW6.1 kmh SSW 10.5 mph16.9 kmh 29.82 in1009.8 mb 0.00 in0.0 mm 0.00 in0.0 mm 0.00 in0.0 mm
11:35 AM 78.3°F25.7°C 54.5°F12.5°C 44% Calm Calm 10.5 mph16.9 kmh 29.82 in1009.8 mb 0.00 in0.0 mm 0.00 in0.0 mm 0.00 in0.0 mm
11:40 AM 78.3°F25.7°C 53.3°F11.8°C 42% 2.2 mph N3.5 kmh N 4.0 mph6.4 kmh 29.81 in1009.5 mb 0.00 in0.0 mm 0.00 in0.0 mm 0.00 in0.0 mm
11:45 AM 78.4°F25.8°C 52.8°F11.6°C 41% 4.7 mph N7.6 kmh N 8.1 mph13.0 kmh 29.81 in1009.5 mb 0.00 in0.0 mm 0.00 in0.0 mm 0.00 in0.0 mm
11:50 AM 78.4°F25.8°C 52.8°F11.6°C 41% Calm Calm 8.1 mph13.0 kmh 29.81 in1009.5 mb 0.00 in0.0 mm 0.00 in0.0 mm 0.00 in0.0 mm
11:55 AM 79.2°F26.2°C 53.5°F11.9°C 41% 1.1 mph NW1.8 kmh NW 6.0 mph9.7 kmh 29.81 in1009.5 mb 0.00 in0.0 mm 0.00 in0.0 mm 0.00 in0.0 mm
12:00 PM 79.2°F26.2°C 53.5°F11.9°C 41% Calm Calm 6.5 mph10.5 kmh 29.80 in1009.1 mb 0.00 in0.0 mm 0.00 in0.0 mm 0.00 in0.0 mm
12:05 PM 79.0°F26.1°C 53.3°F11.8°C 41% 2.9 mph NE4.7 kmh NE 7.2 mph11.6 kmh 29.80 in1009.1 mb 0.00 in0.0 mm 0.00 in0.0 mm 0.00 in0.0 mm
12:10 PM 79.0°F26.1°C 52.7°F11.5°C 40% 1.8 mph NNE2.9 kmh NNE 8.1 mph13.0 kmh 29.80 in1009.1 mb 0.00 in0.0 mm 0.00 in0.0 mm 0.00 in0.0 mm
12:15 PM 79.3°F26.3°C 52.2°F11.2°C 39% 2.5 mph NNW4.0 kmh NNW 8.1 mph13.0 kmh 29.80 in1009.1 mb 0.00 in0.0 mm 0.00 in0.0 mm 0.00 in0.0 mm
12:20 PM 79.7°F26.5°C 53.3°F11.8°C 40% Calm Calm 6.7 mph10.8 kmh 29.80 in1009.1 mb 0.00 in0.0 mm 0.00 in0.0 mm 0.00 in0.0 mm
12:25 PM 79.7°F26.5°C 53.3°F11.8°C 40% 6.0 mph WNW9.7 kmh WNW 9.4 mph15.1 kmh 29.80 in1009.1 mb 0.00 in0.0 mm 0.00 in0.0 mm 0.00 in0.0 mm
12:30 PM 79.5°F26.4°C 52.4°F11.3°C 39% 5.4 mph SW8.7 kmh SW 10.5 mph16.9 kmh 29.79 in1008.8 mb 0.00 in0.0 mm 0.00 in0.0 mm 0.00 in0.0 mm
12:35 PM 79.3°F26.3°C 53.0°F11.7°C 40% 1.8 mph S2.9 kmh S 10.5 mph16.9 kmh 29.79 in1008.8 mb 0.00 in0.0 mm 0.00 in0.0 mm 0.00 in0.0 mm
12:40 PM 79.3°F26.3°C 53.0°F11.7°C 40% 2.2 mph E3.5 kmh E 7.6 mph12.2 kmh 29.79 in1008.8 mb 0.00 in0.0 mm 0.00 in0.0 mm 0.00 in0.0 mm
12:45 PM 79.3°F26.3°C 49.9°F9.9°C 36% 8.5 mph N13.7 kmh N 9.6 mph15.4 kmh 29.79 in1008.8 mb 0.00 in0.0 mm 0.00 in0.0 mm 0.00 in0.0 mm
12:50 PM 79.3°F26.3°C 50.7°F10.4°C 37% Calm Calm 9.6 mph15.4 kmh 29.79 in1008.8 mb 0.00 in0.0 mm 0.00 in0.0 mm 0.00 in0.0 mm
12:55 PM 79.9°F26.6°C 51.2°F10.7°C 37% 1.8 mph NNW2.9 kmh NNW 8.5 mph13.7 kmh 29.78 in1008.5 mb 0.00 in0.0 mm 0.00 in0.0 mm 0.00 in0.0 mm
01:00 PM 80.2°F26.8°C 52.3°F11.3°C 38% 3.1 mph NNE5.0 kmh NNE 5.4 mph8.7 kmh 29.78 in1008.5 mb 0.00 in0.0 mm 0.00 in0.0 mm 0.00 in0.0 mm
01:05 PM 80.2°F26.8°C 53.0°F11.7°C 39% 1.1 mph NE1.8 kmh NE 5.4 mph8.7 kmh 29.78 in1008.5 mb 0.00 in0.0 mm 0.00 in0.0 mm 0.00 in0.0 mm
01:10 PM 80.4°F26.9°C 53.2°F11.8°C 39% Calm Calm 6.3 mph10.1 kmh 29.78 in1008.5 mb 0.00 in0.0 mm 0.00 in0.0 mm 0.00 in0.0 mm
01:15 PM 80.8°F27.1°C 53.5°F11.9°C 39% Calm Calm 6.3 mph10.1 kmh 29.77 in1008.1 mb 0.00 in0.0 mm 0.00 in0.0 mm 0.00 in0.0 mm
01:20 PM 80.8°F27.1°C 52.0°F11.1°C 37% 6.3 mph NNE10.1 kmh NNE 8.9 mph14.3 kmh 29.78 in1008.5 mb 0.00 in0.0 mm 0.00 in0.0 mm 0.00 in0.0 mm
01:25 PM 80.8°F27.1°C 52.0°F11.1°C 37% 7.6 mph NE12.2 kmh NE 8.9 mph14.3 kmh 29.78 in1008.5 mb 0.00 in0.0 mm 0.00 in0.0 mm 0.00 in0.0 mm
01:30 PM 80.8°F27.1°C 52.0°F11.1°C 37% 2.2 mph S3.5 kmh S 8.9 mph14.3 kmh 29.77 in1008.1 mb 0.00 in0.0 mm 0.00 in0.0 mm 0.00 in0.0 mm
01:35 PM 80.8°F27.1°C 52.7°F11.5°C 38% 2.0 mph NE3.2 kmh NE 6.0 mph9.7 kmh 29.77 in1008.1 mb 0.00 in0.0 mm 0.00 in0.0 mm 0.00 in0.0 mm
01:40 PM 81.1°F27.3°C 52.3°F11.3°C 37% 5.6 mph NE9.0 kmh NE 8.9 mph14.3 kmh 29.77 in1008.1 mb 0.00 in0.0 mm 0.00 in0.0 mm 0.00 in0.0 mm
01:45 PM 80.8°F27.1°C 52.0°F11.1°C 37% 2.5 mph S4.0 kmh S 8.9 mph14.3 kmh 29.77 in1008.1 mb 0.00 in0.0 mm 0.00 in0.0 mm 0.00 in0.0 mm
01:50 PM 80.6°F27.0°C 52.6°F11.4°C 38% 2.2 mph ESE3.5 kmh ESE 11.0 mph17.7 kmh 29.77 in1008.1 mb 0.00 in0.0 mm 0.00 in0.0 mm 0.00 in0.0 mm
01:55 PM 81.1°F27.3°C 52.3°F11.3°C 37% 2.0 mph NE3.2 kmh NE 11.0 mph17.7 kmh 29.77 in1008.1 mb 0.00 in0.0 mm 0.00 in0.0 mm 0.00 in0.0 mm
02:00 PM 81.5°F27.5°C 52.6°F11.4°C 36% 4.7 mph SSE7.6 kmh SSE 8.1 mph13.0 kmh 29.76 in1007.8 mb 0.00 in0.0 mm 0.00 in0.0 mm 0.00 in0.0 mm
02:05 PM 81.1°F27.3°C 52.3°F11.3°C 37% Calm Calm 10.7 mph17.2 kmh 29.76 in1007.8 mb 0.00 in0.0 mm 0.00 in0.0 mm 0.00 in0.0 mm
02:10 PM 81.3°F27.4°C 53.2°F11.8°C 38% 1.3 mph SSW2.1 kmh SSW 10.7 mph17.2 kmh 29.76 in1007.8 mb 0.00 in0.0 mm 0.00 in0.0 mm 0.00 in0.0 mm
02:15 PM 81.1°F27.3°C 53.1°F11.7°C 38% 2.7 mph ENE4.3 kmh ENE 10.3 mph16.6 kmh 29.76 in1007.8 mb 0.00 in0.0 mm 0.00 in0.0 mm 0.00 in0.0 mm
02:20 PM 81.1°F27.3°C 52.3°F11.3°C 37% 2.0 mph NE3.2 kmh NE 10.3 mph16.6 kmh 29.75 in1007.5 mb 0.00 in0.0 mm 0.00 in0.0 mm 0.00 in0.0 mm
02:25 PM 81.1°F27.3°C 52.3°F11.3°C 37% 2.2 mph N3.5 kmh N 7.8 mph12.6 kmh 29.75 in1007.5 mb 0.00 in0.0 mm 0.00 in0.0 mm 0.00 in0.0 mm
02:30 PM 81.1°F27.3°C 53.1°F11.7°C 38% Calm Calm 6.9 mph11.1 kmh 29.75 in1007.5 mb 0.00 in0.0 mm 0.00 in0.0 mm 0.00 in0.0 mm
02:35 PM 81.3°F27.4°C 53.2°F11.8°C 38% Calm Calm 6.7 mph10.8 kmh 29.75 in1007.5 mb 0.00 in0.0 mm 0.00 in0.0 mm 0.00 in0.0 mm
02:40 PM 81.7°F27.6°C 53.5°F11.9°C 38% 2.9 mph S4.7 kmh S 6.7 mph10.8 kmh 29.75 in1007.5 mb 0.00 in0.0 mm 0.00 in0.0 mm 0.00 in0.0 mm
02:45 PM 81.9°F27.7°C 54.5°F12.5°C 39% 1.1 mph SSW1.8 kmh SSW 8.5 mph13.7 kmh 29.75 in1007.5 mb 0.00 in0.0 mm 0.00 in0.0 mm 0.00 in0.0 mm
02:50 PM 81.5°F27.5°C 54.2°F12.3°C 39% 4.7 mph SW7.6 kmh SW 11.2 mph18.0 kmh 29.74 in1007.1 mb 0.00 in0.0 mm 0.00 in0.0 mm 0.00 in0.0 mm
02:55 PM 81.3°F27.4°C 54.0°F12.2°C 39% 2.9 mph SSW4.7 kmh SSW 11.2 mph18.0 kmh 29.74 in1007.1 mb 0.00 in0.0 mm 0.00 in0.0 mm 0.00 in0.0 mm
03:00 PM 81.5°F27.5°C 54.2°F12.3°C 39% Calm Calm 9.4 mph15.1 kmh 29.74 in1007.1 mb 0.00 in0.0 mm 0.00 in0.0 mm 0.00 in0.0 mm
03:05 PM 81.7°F27.6°C 54.3°F12.4°C 39% Calm Calm 8.1 mph13.0 kmh 29.74 in1007.1 mb 0.00 in0.0 mm 0.00 in0.0 mm 0.00 in0.0 mm
03:10 PM 82.2°F27.9°C 54.8°F12.7°C 39% 3.8 mph NNE6.1 kmh NNE 8.1 mph13.0 kmh 29.74 in1007.1 mb 0.00 in0.0 mm 0.00 in0.0 mm 0.00 in0.0 mm
03:15 PM 82.2°F27.9°C 54.0°F12.2°C 38% 2.7 mph S4.3 kmh S 6.0 mph9.7 kmh 29.73 in1006.8 mb 0.00 in0.0 mm 0.00 in0.0 mm 0.00 in0.0 mm
03:20 PM 81.7°F27.6°C 53.5°F11.9°C 38% 2.9 mph SE4.7 kmh SE 6.0 mph9.7 kmh 29.73 in1006.8 mb 0.00 in0.0 mm 0.00 in0.0 mm 0.00 in0.0 mm
03:25 PM 82.0°F27.8°C 53.9°F12.2°C 38% 0.7 mph NE1.1 kmh NE 4.7 mph7.6 kmh 29.73 in1006.8 mb 0.00 in0.0 mm 0.00 in0.0 mm 0.00 in0.0 mm
03:30 PM 82.2°F27.9°C 54.0°F12.2°C 38% 1.6 mph WNW2.6 kmh WNW 5.4 mph8.7 kmh 29.73 in1006.8 mb 0.00 in0.0 mm 0.00 in0.0 mm 0.00 in0.0 mm
03:35 PM 82.8°F28.2°C 54.5°F12.5°C 38% Calm Calm 5.4 mph8.7 kmh 29.73 in1006.8 mb 0.00 in0.0 mm 0.00 in0.0 mm 0.00 in0.0 mm
03:40 PM 82.6°F28.1°C 54.3°F12.4°C 38% 7.6 mph S12.2 kmh S 10.5 mph16.9 kmh 29.73 in1006.8 mb 0.00 in0.0 mm 0.00 in0.0 mm 0.00 in0.0 mm
03:45 PM 82.0°F27.8°C 54.6°F12.6°C 39% 8.1 mph SSW13.0 kmh SSW 11.2 mph18.0 kmh 29.73 in1006.8 mb 0.00 in0.0 mm 0.00 in0.0 mm 0.00 in0.0 mm
03:50 PM 81.5°F27.5°C 54.2°F12.3°C 39% Calm Calm 11.2 mph18.0 kmh 29.73 in1006.8 mb 0.00 in0.0 mm 0.00 in0.0 mm 0.00 in0.0 mm
03:55 PM 81.5°F27.5°C 55.0°F12.8°C 40% Calm Calm 10.3 mph16.6 kmh 29.73 in1006.8 mb 0.00 in0.0 mm 0.00 in0.0 mm 0.00 in0.0 mm
04:00 PM 81.7°F27.6°C 55.1°F12.8°C 40% 4.5 mph SSW7.2 kmh SSW 10.5 mph16.9 kmh 29.73 in1006.8 mb 0.00 in0.0 mm 0.00 in0.0 mm 0.00 in0.0 mm
04:05 PM 81.3°F27.4°C 55.4°F13.0°C 41% 2.2 mph S3.5 kmh S 10.5 mph16.9 kmh 29.72 in1006.4 mb 0.00 in0.0 mm 0.00 in0.0 mm 0.00 in0.0 mm
04:10 PM 81.1°F27.3°C 55.2°F12.9°C 41% 3.1 mph SSE5.0 kmh SSE 7.2 mph11.6 kmh 29.73 in1006.8 mb 0.00 in0.0 mm 0.00 in0.0 mm 0.00 in0.0 mm
04:15 PM 81.0°F27.2°C 55.7°F13.2°C 42% 5.1 mph SSE8.2 kmh SSE 11.2 mph18.0 kmh 29.72 in1006.4 mb 0.00 in0.0 mm 0.00 in0.0 mm 0.00 in0.0 mm
04:20 PM 80.4°F26.9°C 56.4°F13.6°C 44% 8.5 mph SSW13.7 kmh SSW 11.2 mph18.0 kmh 29.72 in1006.4 mb 0.00 in0.0 mm 0.00 in0.0 mm 0.00 in0.0 mm
04:25 PM 80.2°F26.8°C 56.9°F13.8°C 45% 3.1 mph SSW5.0 kmh SSW 10.1 mph16.3 kmh 29.72 in1006.4 mb 0.00 in0.0 mm 0.00 in0.0 mm 0.00 in0.0 mm
04:30 PM 79.9°F26.6°C 57.2°F14.0°C 46% 6.0 mph SSW9.7 kmh SSW 9.2 mph14.8 kmh 29.72 in1006.4 mb 0.00 in0.0 mm 0.00 in0.0 mm 0.00 in0.0 mm
04:35 PM 79.3°F26.3°C 59.1°F15.1°C 50% 2.9 mph SW4.7 kmh SW 9.4 mph15.1 kmh 29.72 in1006.4 mb 0.00 in0.0 mm 0.00 in0.0 mm 0.00 in0.0 mm
04:40 PM 78.6°F25.9°C 60.0°F15.6°C 53% 3.1 mph SW5.0 kmh SW 9.8 mph15.8 kmh 29.73 in1006.8 mb 0.00 in0.0 mm 0.00 in0.0 mm 0.00 in0.0 mm
04:45 PM 77.5°F25.3°C 60.0°F15.6°C 55% 5.8 mph SW9.3 kmh SW 10.5 mph16.9 kmh 29.73 in1006.8 mb 0.00 in0.0 mm 0.00 in0.0 mm 0.00 in0.0 mm
04:50 PM 76.8°F24.9°C 60.4°F15.8°C 57% 4.3 mph SW6.9 kmh SW 10.5 mph16.9 kmh 29.73 in1006.8 mb 0.00 in0.0 mm 0.00 in0.0 mm 0.00 in0.0 mm
04:55 PM 76.3°F24.6°C 60.4°F15.8°C 58% 4.7 mph SW7.6 kmh SW 10.3 mph16.6 kmh 29.73 in1006.8 mb 0.00 in0.0 mm 0.00 in0.0 mm 0.00 in0.0 mm
05:00 PM 75.9°F24.4°C 60.6°F15.9°C 59% 5.6 mph SW9.0 kmh SW 8.3 mph13.4 kmh 29.73 in1006.8 mb 0.00 in0.0 mm 0.00 in0.0 mm 0.00 in0.0 mm
05:05 PM 75.6°F24.2°C 60.3°F15.7°C 59% 2.9 mph SSW4.7 kmh SSW 7.8 mph12.6 kmh 29.73 in1006.8 mb 0.00 in0.0 mm 0.00 in0.0 mm 0.00 in0.0 mm
05:10 PM 75.6°F24.2°C 60.3°F15.7°C 59% 5.4 mph SW8.7 kmh SW 7.4 mph11.9 kmh 29.73 in1006.8 mb 0.00 in0.0 mm 0.00 in0.0 mm 0.00 in0.0 mm
05:15 PM 75.4°F24.1°C 60.1°F15.6°C 59% 2.0 mph SSW3.2 kmh SSW 8.3 mph13.4 kmh 29.73 in1006.8 mb 0.00 in0.0 mm 0.00 in0.0 mm 0.00 in0.0 mm
05:20 PM 75.4°F24.1°C 60.6°F15.9°C 60% 1.1 mph SSW1.8 kmh SSW 8.3 mph13.4 kmh 29.73 in1006.8 mb 0.00 in0.0 mm 0.00 in0.0 mm 0.00 in0.0 mm
05:25 PM 74.8°F23.8°C 60.9°F16.1°C 62% 5.1 mph NE8.2 kmh NE 5.8 mph9.3 kmh 29.73 in1006.8 mb 0.00 in0.0 mm 0.00 in0.0 mm 0.00 in0.0 mm
05:30 PM 74.3°F23.5°C 60.9°F16.1°C 63% Calm Calm 5.8 mph9.3 kmh 29.73 in1006.8 mb 0.00 in0.0 mm 0.00 in0.0 mm 0.00 in0.0 mm
05:35 PM 73.9°F23.3°C 61.4°F16.3°C 65% 1.8 mph NE2.9 kmh NE 5.6 mph9.0 kmh 29.73 in1006.8 mb 0.00 in0.0 mm 0.00 in0.0 mm 0.00 in0.0 mm
05:40 PM 73.4°F23.0°C 61.8°F16.6°C 67% 4.0 mph NNE6.4 kmh NNE 5.4 mph8.7 kmh 29.73 in1006.8 mb 0.00 in0.0 mm 0.00 in0.0 mm 0.00 in0.0 mm
05:45 PM 73.0°F22.8°C 61.9°F16.6°C 68% 1.8 mph NNE2.9 kmh NNE 6.5 mph10.5 kmh 29.73 in1006.8 mb 0.00 in0.0 mm 0.00 in0.0 mm 0.00 in0.0 mm
05:50 PM 72.5°F22.5°C 61.8°F16.6°C 69% 3.6 mph NNE5.8 kmh NNE 6.5 mph10.5 kmh 29.74 in1007.1 mb 0.00 in0.0 mm 0.00 in0.0 mm 0.00 in0.0 mm
05:55 PM 72.1°F22.3°C 61.9°F16.6°C 70% 3.8 mph NNE6.1 kmh NNE 4.9 mph7.9 kmh 29.74 in1007.1 mb 0.00 in0.0 mm 0.00 in0.0 mm 0.00 in0.0 mm
06:00 PM 71.4°F21.9°C 61.9°F16.6°C 72% Calm Calm 6.0 mph9.7 kmh 29.74 in1007.1 mb 0.00 in0.0 mm 0.00 in0.0 mm 0.00 in0.0 mm
06:05 PM 71.2°F21.8°C 61.7°F16.5°C 72% 2.0 mph NNE3.2 kmh NNE 6.0 mph9.7 kmh 29.74 in1007.1 mb 0.00 in0.0 mm 0.00 in0.0 mm 0.00 in0.0 mm
06:10 PM 70.9°F21.6°C 61.4°F16.3°C 72% Calm Calm 2.7 mph4.3 kmh 29.74 in1007.1 mb 0.00 in0.0 mm 0.00 in0.0 mm 0.00 in0.0 mm
06:15 PM 70.5°F21.4°C 61.4°F16.3°C 73% Calm Calm 2.0 mph3.2 kmh 29.74 in1007.1 mb 0.00 in0.0 mm 0.00 in0.0 mm 0.00 in0.0 mm
06:20 PM 70.3°F21.3°C 61.6°F16.4°C 74% 2.0 mph NE3.2 kmh NE 3.4 mph5.5 kmh 29.74 in1007.1 mb 0.00 in0.0 mm 0.00 in0.0 mm 0.00 in0.0 mm
06:25 PM 70.0°F21.1°C 61.6°F16.4°C 75% 2.2 mph NE3.5 kmh NE 3.4 mph5.5 kmh 29.73 in1006.8 mb 0.00 in0.0 mm 0.00 in0.0 mm 0.00 in0.0 mm
06:30 PM 69.6°F20.9°C 61.6°F16.4°C 76% 1.3 mph NE2.1 kmh NE 3.8 mph6.1 kmh 29.74 in1007.1 mb 0.00 in0.0 mm 0.00 in0.0 mm 0.00 in0.0 mm
06:35 PM 69.4°F20.8°C 61.9°F16.6°C 77% Calm Calm 3.8 mph6.1 kmh 29.73 in1006.8 mb 0.00 in0.0 mm 0.00 in0.0 mm 0.00 in0.0 mm
06:40 PM 69.1°F20.6°C 61.2°F16.2°C 76% Calm Calm 2.7 mph4.3 kmh 29.73 in1006.8 mb 0.00 in0.0 mm 0.00 in0.0 mm 0.00 in0.0 mm
06:45 PM 68.7°F20.4°C 60.5°F15.8°C 75% Calm Calm 2.2 mph3.5 kmh 29.74 in1007.1 mb 0.00 in0.0 mm 0.00 in0.0 mm 0.00 in0.0 mm
06:50 PM 68.4°F20.2°C 60.1°F15.6°C 75% 1.8 mph SW2.9 kmh SW 2.5 mph4.0 kmh 29.74 in1007.1 mb 0.00 in0.0 mm 0.00 in0.0 mm 0.00 in0.0 mm
06:55 PM 68.2°F20.1°C 60.0°F15.6°C 75% Calm Calm 2.7 mph4.3 kmh 29.74 in1007.1 mb 0.00 in0.0 mm 0.00 in0.0 mm 0.00 in0.0 mm
07:00 PM 67.8°F19.9°C 60.0°F15.6°C 76% 1.3 mph SW2.1 kmh SW 2.7 mph4.3 kmh 29.74 in1007.1 mb 0.00 in0.0 mm 0.00 in0.0 mm 0.00 in0.0 mm
07:05 PM 67.6°F19.8°C 59.8°F15.4°C 76% 1.6 mph SW2.6 kmh SW 2.5 mph4.0 kmh 29.74 in1007.1 mb 0.00 in0.0 mm 0.00 in0.0 mm 0.00 in0.0 mm
07:10 PM 67.5°F19.7°C 59.6°F15.3°C 76% 1.6 mph SW2.6 kmh SW 2.5 mph4.0 kmh 29.74 in1007.1 mb 0.00 in0.0 mm 0.00 in0.0 mm 0.00 in0.0 mm
07:15 PM 67.3°F19.6°C 59.5°F15.3°C 76% 1.1 mph SW1.8 kmh SW 2.5 mph4.0 kmh 29.74 in1007.1 mb 0.00 in0.0 mm 0.00 in0.0 mm 0.00 in0.0 mm
07:20 PM 67.1°F19.5°C 59.7°F15.4°C 77% 2.0 mph SW3.2 kmh SW 3.4 mph5.5 kmh 29.74 in1007.1 mb 0.00 in0.0 mm 0.00 in0.0 mm 0.00 in0.0 mm
07:25 PM 66.9°F19.4°C 59.9°F15.5°C 78% Calm Calm 3.4 mph5.5 kmh 29.74 in1007.1 mb 0.00 in0.0 mm 0.00 in0.0 mm 0.00 in0.0 mm
07:30 PM 66.7°F19.3°C 59.7°F15.4°C 78% Calm Calm 2.9 mph4.7 kmh 29.74 in1007.1 mb 0.00 in0.0 mm 0.00 in0.0 mm 0.00 in0.0 mm
07:35 PM 66.6°F19.2°C 59.5°F15.3°C 78% 1.3 mph SW2.1 kmh SW 2.5 mph4.0 kmh 29.74 in1007.1 mb 0.00 in0.0 mm 0.00 in0.0 mm 0.00 in0.0 mm
07:40 PM 66.4°F19.1°C 59.3°F15.2°C 78% 2.5 mph SW4.0 kmh SW 2.7 mph4.3 kmh 29.74 in1007.1 mb 0.00 in0.0 mm 0.00 in0.0 mm 0.00 in0.0 mm
07:45 PM 66.0°F18.9°C 59.3°F15.2°C 79% 2.7 mph SW4.3 kmh SW 2.9 mph4.7 kmh 29.74 in1007.1 mb 0.00 in0.0 mm 0.00 in0.0 mm 0.00 in0.0 mm
07:50 PM 66.0°F18.9°C 59.7°F15.4°C 80% 1.8 mph SW2.9 kmh SW 4.0 mph6.4 kmh 29.74 in1007.1 mb 0.00 in0.0 mm 0.00 in0.0 mm 0.00 in0.0 mm
07:55 PM 66.0°F18.9°C 59.7°F15.4°C 80% 1.6 mph SW2.6 kmh SW 4.0 mph6.4 kmh 29.74 in1007.1 mb 0.00 in0.0 mm 0.00 in0.0 mm 0.00 in0.0 mm
08:00 PM 65.8°F18.8°C 59.5°F15.3°C 80% 1.6 mph SW2.6 kmh SW 2.0 mph3.2 kmh 29.74 in1007.1 mb 0.00 in0.0 mm 0.00 in0.0 mm 0.00 in0.0 mm
08:05 PM 65.5°F18.6°C 59.2°F15.1°C 80% 1.8 mph SW2.9 kmh SW 4.3 mph6.9 kmh 29.74 in1007.1 mb 0.00 in0.0 mm 0.00 in0.0 mm 0.00 in0.0 mm
08:10 PM 65.5°F18.6°C 59.5°F15.3°C 81% 1.6 mph SW2.6 kmh SW 4.3 mph6.9 kmh 29.74 in1007.1 mb 0.00 in0.0 mm 0.00 in0.0 mm 0.00 in0.0 mm
08:15 PM 65.1°F18.4°C 59.1°F15.1°C 81% 1.8 mph SW2.9 kmh SW 2.2 mph3.5 kmh 29.74 in1007.1 mb 0.00 in0.0 mm 0.00 in0.0 mm 0.00 in0.0 mm
08:20 PM 65.1°F18.4°C 59.1°F15.1°C 81% 1.8 mph SW2.9 kmh SW 2.5 mph4.0 kmh 29.74 in1007.1 mb 0.00 in0.0 mm 0.00 in0.0 mm 0.00 in0.0 mm
08:25 PM 64.9°F18.3°C 59.0°F15.0°C 81% Calm Calm 2.5 mph4.0 kmh 29.74 in1007.1 mb 0.00 in0.0 mm 0.00 in0.0 mm 0.00 in0.0 mm
08:30 PM 64.6°F18.1°C 58.3°F14.6°C 80% 1.3 mph SW2.1 kmh SW 3.1 mph5.0 kmh 29.74 in1007.1 mb 0.00 in0.0 mm 0.00 in0.0 mm 0.00 in0.0 mm
08:35 PM 64.0°F17.8°C 57.0°F13.9°C 78% 2.5 mph SW4.0 kmh SW 4.0 mph6.4 kmh 29.74 in1007.1 mb 0.00 in0.0 mm 0.00 in0.0 mm 0.00 in0.0 mm
08:40 PM 64.0°F17.8°C 57.0°F13.9°C 78% 1.6 mph SW2.6 kmh SW 4.0 mph6.4 kmh 29.74 in1007.1 mb 0.00 in0.0 mm 0.00 in0.0 mm 0.00 in0.0 mm
08:45 PM 63.9°F17.7°C 56.8°F13.8°C 78% Calm Calm 3.4 mph5.5 kmh 29.74 in1007.1 mb 0.00 in0.0 mm 0.00 in0.0 mm 0.00 in0.0 mm
08:50 PM 63.9°F17.7°C 56.5°F13.6°C 77% Calm Calm 2.7 mph4.3 kmh 29.74 in1007.1 mb 0.00 in0.0 mm 0.00 in0.0 mm 0.00 in0.0 mm
08:55 PM 63.7°F17.6°C 55.9°F13.3°C 76% 1.1 mph SW1.8 kmh SW 3.1 mph5.0 kmh 29.74 in1007.1 mb 0.00 in0.0 mm 0.00 in0.0 mm 0.00 in0.0 mm
09:00 PM 63.7°F17.6°C 55.9°F13.3°C 76% 2.2 mph SW3.5 kmh SW 3.1 mph5.0 kmh 29.74 in1007.1 mb 0.00 in0.0 mm 0.00 in0.0 mm 0.00 in0.0 mm
09:05 PM 63.7°F17.6°C 55.9°F13.3°C 76% Calm Calm 2.5 mph4.0 kmh 29.74 in1007.1 mb 0.00 in0.0 mm 0.00 in0.0 mm 0.00 in0.0 mm
09:10 PM 63.7°F17.6°C 55.6°F13.1°C 75% 2.7 mph SW4.3 kmh SW 2.7 mph4.3 kmh 29.74 in1007.1 mb 0.00 in0.0 mm 0.00 in0.0 mm 0.00 in0.0 mm
09:15 PM 63.5°F17.5°C 55.4°F13.0°C 75% 0.9 mph SW1.4 kmh SW 3.4 mph5.5 kmh 29.74 in1007.1 mb 0.00 in0.0 mm 0.00 in0.0 mm 0.00 in0.0 mm
09:20 PM 63.5°F17.5°C 55.4°F13.0°C 75% 2.2 mph SW3.5 kmh SW 4.0 mph6.4 kmh 29.74 in1007.1 mb 0.00 in0.0 mm 0.00 in0.0 mm 0.00 in0.0 mm
09:25 PM 63.5°F17.5°C 55.4°F13.0°C 75% 3.1 mph SW5.0 kmh SW 4.0 mph6.4 kmh 29.74 in1007.1 mb 0.00 in0.0 mm 0.00 in0.0 mm 0.00 in0.0 mm
09:30 PM 63.5°F17.5°C 55.0°F12.8°C 74% 2.2 mph SW3.5 kmh SW 4.0 mph6.4 kmh 29.74 in1007.1 mb 0.00 in0.0 mm 0.00 in0.0 mm 0.00 in0.0 mm
09:35 PM 63.3°F17.4°C 54.9°F12.7°C 74% 1.6 mph SW2.6 kmh SW 3.8 mph6.1 kmh 29.74 in1007.1 mb 0.00 in0.0 mm 0.00 in0.0 mm 0.00 in0.0 mm
09:40 PM 63.3°F17.4°C 54.9°F12.7°C 74% 1.6 mph SW2.6 kmh SW 5.4 mph8.7 kmh 29.74 in1007.1 mb 0.00 in0.0 mm 0.00 in0.0 mm 0.00 in0.0 mm
09:45 PM 63.1°F17.3°C 54.3°F12.4°C 73% 1.6 mph SW2.6 kmh SW 5.4 mph8.7 kmh 29.74 in1007.1 mb 0.00 in0.0 mm 0.00 in0.0 mm 0.00 in0.0 mm
09:50 PM 63.0°F17.2°C 54.1°F12.3°C 73% 2.0 mph SW3.2 kmh SW 5.1 mph8.2 kmh 29.74 in1007.1 mb 0.00 in0.0 mm 0.00 in0.0 mm 0.00 in0.0 mm
09:55 PM 62.8°F17.1°C 54.0°F12.2°C 73% Calm Calm 3.4 mph5.5 kmh 29.74 in1007.1 mb 0.00 in0.0 mm 0.00 in0.0 mm 0.00 in0.0 mm
10:00 PM 62.4°F16.9°C 53.6°F12.0°C 73% 1.3 mph SW2.1 kmh SW 3.1 mph5.0 kmh 29.74 in1007.1 mb 0.00 in0.0 mm 0.00 in0.0 mm 0.00 in0.0 mm
10:05 PM 62.4°F16.9°C 53.6°F12.0°C 73% 1.6 mph SW2.6 kmh SW 2.9 mph4.7 kmh 29.73 in1006.8 mb 0.00 in0.0 mm 0.00 in0.0 mm 0.00 in0.0 mm
10:10 PM 62.4°F16.9°C 53.6°F12.0°C 73% 1.3 mph SW2.1 kmh SW 3.1 mph5.0 kmh 29.73 in1006.8 mb 0.00 in0.0 mm 0.00 in0.0 mm 0.00 in0.0 mm
10:15 PM 62.4°F16.9°C 53.6°F12.0°C 73% Calm Calm 3.1 mph5.0 kmh 29.73 in1006.8 mb 0.00 in0.0 mm 0.00 in0.0 mm 0.00 in0.0 mm
10:20 PM 62.4°F16.9°C 53.6°F12.0°C 73% 2.2 mph SW3.5 kmh SW 2.5 mph4.0 kmh 29.73 in1006.8 mb 0.00 in0.0 mm 0.00 in0.0 mm 0.00 in0.0 mm
10:25 PM 62.2°F16.8°C 53.5°F11.9°C 73% Calm Calm 2.5 mph4.0 kmh 29.73 in1006.8 mb 0.00 in0.0 mm 0.00 in0.0 mm 0.00 in0.0 mm
10:30 PM 62.2°F16.8°C 53.5°F11.9°C 73% 1.3 mph SW2.1 kmh SW 2.2 mph3.5 kmh 29.73 in1006.8 mb 0.00 in0.0 mm 0.00 in0.0 mm 0.00 in0.0 mm
10:35 PM 62.2°F16.8°C 53.5°F11.9°C 73% Calm Calm 3.6 mph5.8 kmh 29.73 in1006.8 mb 0.00 in0.0 mm 0.00 in0.0 mm 0.00 in0.0 mm
10:40 PM 62.1°F16.7°C 53.3°F11.8°C 73% 1.3 mph SW2.1 kmh SW 3.6 mph5.8 kmh 29.73 in1006.8 mb 0.00 in0.0 mm 0.00 in0.0 mm 0.00 in0.0 mm
10:45 PM 62.1°F16.7°C 52.9°F11.6°C 72% 1.8 mph SW2.9 kmh SW 3.6 mph5.8 kmh 29.72 in1006.4 mb 0.00 in0.0 mm 0.00 in0.0 mm 0.00 in0.0 mm
10:50 PM 61.9°F16.6°C 52.8°F11.6°C 72% Calm Calm 2.0 mph3.2 kmh 29.72 in1006.4 mb 0.00 in0.0 mm 0.00 in0.0 mm 0.00 in0.0 mm
10:55 PM 61.5°F16.4°C 52.4°F11.3°C 72% Calm Calm 1.6 mph2.6 kmh 29.72 in1006.4 mb 0.00 in0.0 mm 0.00 in0.0 mm 0.00 in0.0 mm
11:00 PM 61.5°F16.4°C 52.8°F11.6°C 73% Calm Calm 1.3 mph2.1 kmh 29.72 in1006.4 mb 0.00 in0.0 mm 0.00 in0.0 mm 0.00 in0.0 mm
11:05 PM 61.3°F16.3°C 52.6°F11.4°C 73% Calm Calm 2.2 mph3.5 kmh 29.72 in1006.4 mb 0.00 in0.0 mm 0.00 in0.0 mm 0.00 in0.0 mm
11:10 PM 61.2°F16.2°C 52.5°F11.4°C 73% 0.9 mph SW1.4 kmh SW 2.2 mph3.5 kmh 29.72 in1006.4 mb 0.00 in0.0 mm 0.00 in0.0 mm 0.00 in0.0 mm
11:15 PM 61.0°F16.1°C 52.3°F11.3°C 73% 1.1 mph S1.8 kmh S 1.8 mph2.9 kmh 29.72 in1006.4 mb 0.00 in0.0 mm 0.00 in0.0 mm 0.00 in0.0 mm
11:20 PM 61.0°F16.1°C 52.3°F11.3°C 73% Calm Calm 2.5 mph4.0 kmh 29.71 in1006.1 mb 0.00 in0.0 mm 0.00 in0.0 mm 0.00 in0.0 mm
11:25 PM 61.0°F16.1°C 52.0°F11.1°C 72% Calm Calm 2.5 mph4.0 kmh 29.71 in1006.1 mb 0.00 in0.0 mm 0.00 in0.0 mm 0.00 in0.0 mm
11:30 PM 61.0°F16.1°C 52.0°F11.1°C 72% 2.0 mph SW3.2 kmh SW 2.9 mph4.7 kmh 29.70 in1005.8 mb 0.00 in0.0 mm 0.00 in0.0 mm 0.00 in0.0 mm
11:35 PM 61.2°F16.2°C 51.8°F11.0°C 71% Calm Calm 3.8 mph6.1 kmh 29.70 in1005.8 mb 0.00 in0.0 mm 0.00 in0.0 mm 0.00 in0.0 mm
11:40 PM 61.3°F16.3°C 51.9°F11.1°C 71% Calm Calm 3.8 mph6.1 kmh 29.70 in1005.8 mb 0.00 in0.0 mm 0.00 in0.0 mm 0.00 in0.0 mm
11:45 PM 61.3°F16.3°C 51.9°F11.1°C 71% Calm Calm 4.0 mph6.4 kmh 29.69 in1005.4 mb 0.00 in0.0 mm 0.00 in0.0 mm 0.00 in0.0 mm
11:50 PM 61.5°F16.4°C 52.1°F11.2°C 71% 2.2 mph WSW3.5 kmh WSW 4.0 mph6.4 kmh 29.69 in1005.4 mb 0.00 in0.0 mm 0.00 in0.0 mm 0.00 in0.0 mm
11:55 PM 61.9°F16.6°C 52.4°F11.3°C 71% 2.5 mph NW4.0 kmh NW 3.6 mph5.8 kmh 29.69 in1005.4 mb 0.00 in0.0 mm 0.00 in0.0 mm 0.00 in0.0 mm